createdAt,value
2019-01-26T00:01:34.977Z,68.13
2019-01-26T00:04:04.309Z,72.97
2019-01-26T00:06:34.796Z,64.17
2019-01-26T00:09:06.532Z,62.50
2019-01-26T00:11:35.776Z,71.47
2019-01-26T00:14:04.964Z,61.80
2019-01-26T00:16:36.612Z,69.40
2019-01-26T00:19:05.753Z,68.00
2019-01-26T00:21:34.943Z,68.00
2019-01-26T00:24:04.140Z,64.43
2019-01-26T00:26:36.387Z,71.17
2019-01-26T00:29:02.500Z,72.70
2019-01-26T00:31:31.629Z,70.43
2019-01-26T00:34:00.864Z,74.93
2019-01-26T00:36:30.053Z,71.73
2019-01-26T00:38:59.192Z,70.10
2019-01-26T00:41:28.440Z,66.83
2019-01-26T00:43:57.686Z,72.50
2019-01-26T00:46:28.437Z,72.23
2019-01-26T00:48:55.980Z,66.13
2019-01-26T00:51:25.191Z,69.23
2019-01-26T00:53:55.596Z,59.00
2019-01-26T00:56:24.755Z,67.27
2019-01-26T00:58:55.215Z,65.43
2019-01-26T01:01:24.612Z,68.23
2019-01-26T01:03:53.821Z,70.93
2019-01-26T01:06:26.000Z,70.77
2019-01-26T01:08:52.092Z,74.13
2019-01-26T01:11:21.350Z,58.57
2019-01-26T01:13:50.553Z,59.07
2019-01-26T01:16:19.685Z,55.23
2019-01-26T01:18:48.915Z,64.87
2019-01-26T01:21:19.316Z,64.77
2019-01-26T01:23:48.535Z,61.60
2019-01-26T01:26:17.711Z,60.03
2019-01-26T01:28:46.873Z,53.20
2019-01-26T01:31:16.003Z,55.50
2019-01-26T01:33:45.144Z,54.60
2019-01-26T01:36:14.310Z,60.03
2019-01-26T01:38:43.517Z,57.10
2019-01-26T01:41:12.641Z,49.57
2019-01-26T01:43:41.929Z,51.67
2019-01-26T01:46:11.093Z,54.57
2019-01-26T01:48:40.282Z,51.77
2019-01-26T01:51:09.423Z,53.17
2019-01-26T01:53:38.584Z,52.73
2019-01-26T01:56:09.111Z,52.83
2019-01-26T01:58:38.323Z,52.23
2019-01-26T02:01:07.572Z,52.23
2019-01-26T02:03:36.756Z,57.23
2019-01-26T02:06:05.897Z,49.50
2019-01-26T02:08:35.029Z,48.37
2019-01-26T02:11:04.185Z,46.50
2019-01-26T02:13:33.317Z,53.07
2019-01-26T02:16:02.509Z,56.33
2019-01-26T02:18:31.659Z,53.60
2019-01-26T02:21:00.798Z,53.97
2019-01-26T02:23:29.924Z,52.03
2019-01-26T02:25:59.121Z,54.03
2019-01-26T02:28:28.222Z,52.50
2019-01-26T02:30:57.371Z,54.73
2019-01-26T02:33:26.594Z,51.03
2019-01-26T02:35:55.796Z,54.00
2019-01-26T02:38:24.918Z,45.07
2019-01-26T02:40:54.060Z,53.73
2019-01-26T02:43:23.238Z,44.67
2019-01-26T02:45:52.375Z,46.23
2019-01-26T02:48:21.538Z,49.73
2019-01-26T02:50:50.730Z,43.93
2019-01-26T02:53:19.875Z,42.77
2019-01-26T02:55:49.150Z,49.57
2019-01-26T02:58:18.293Z,50.10
2019-01-26T03:00:47.532Z,50.87
2019-01-26T03:03:16.665Z,47.27
2019-01-26T03:05:45.810Z,49.43
2019-01-26T03:08:14.973Z,49.77
2019-01-26T03:10:44.128Z,48.00
2019-01-26T03:13:13.305Z,49.33
2019-01-26T03:15:42.510Z,48.37
2019-01-26T03:18:11.667Z,49.53
2019-01-26T03:20:40.858Z,45.23
2019-01-26T03:23:09.995Z,45.10
2019-01-26T03:25:39.132Z,42.93
2019-01-26T03:28:08.289Z,40.97
2019-01-26T03:30:37.433Z,47.17
2019-01-26T03:33:06.577Z,41.77
2019-01-26T03:35:35.843Z,39.67
2019-01-26T03:38:05.082Z,48.10
2019-01-26T03:40:34.269Z,43.40
2019-01-26T03:43:03.398Z,38.57
2019-01-26T03:45:32.533Z,40.73
2019-01-26T03:48:01.700Z,40.67
2019-01-26T03:50:30.831Z,41.33
2019-01-26T03:53:00.052Z,45.07
2019-01-26T03:55:29.230Z,42.53
2019-01-26T03:57:58.360Z,39.87
2019-01-26T04:00:27.478Z,40.33
2019-01-26T04:02:56.665Z,42.23
2019-01-26T04:05:25.868Z,37.87
2019-01-26T04:07:55.002Z,41.40
2019-01-26T04:10:24.236Z,36.67
2019-01-26T04:12:53.445Z,40.20
2019-01-26T04:15:22.583Z,42.37
2019-01-26T04:17:51.708Z,37.20
2019-01-26T04:20:21.106Z,35.87
2019-01-26T04:22:50.294Z,37.83
2019-01-26T04:25:19.425Z,40.73
2019-01-26T04:27:48.588Z,33.30
2019-01-26T04:30:18.663Z,41.17
2019-01-26T04:32:47.784Z,39.23
2019-01-26T04:35:16.946Z,39.10
2019-01-26T04:37:46.082Z,46.13
2019-01-26T04:40:16.064Z,45.37
2019-01-26T04:42:45.219Z,39.70
2019-01-26T04:45:15.556Z,43.47
2019-01-26T04:47:44.749Z,47.50
2019-01-26T04:50:14.271Z,40.20
2019-01-26T04:52:43.535Z,39.53
2019-01-26T04:55:12.895Z,49.50
2019-01-26T04:57:42.083Z,44.67
2019-01-26T05:00:14.135Z,51.97
2019-01-26T05:02:43.300Z,49.03
2019-01-26T05:05:12.448Z,48.63
2019-01-26T05:07:41.686Z,50.13
2019-01-26T05:10:11.349Z,50.40
2019-01-26T05:12:40.526Z,47.60
2019-01-26T05:15:10.161Z,51.60
2019-01-26T05:17:39.806Z,44.47
2019-01-26T05:20:12.614Z,49.63
2019-01-26T05:22:41.810Z,53.70
2019-01-26T05:25:10.955Z,49.83
2019-01-26T05:27:40.123Z,49.60
2019-01-26T05:30:13.831Z,52.23
2019-01-26T05:32:42.950Z,47.83
2019-01-26T05:35:12.133Z,45.93
2019-01-26T05:37:41.310Z,48.93
2019-01-26T05:40:11.428Z,55.97
2019-01-26T05:42:40.655Z,48.53
2019-01-26T05:45:11.002Z,50.23
2019-01-26T05:47:47.603Z,47.00
2019-01-26T05:50:10.881Z,52.37
2019-01-26T05:52:40.078Z,49.60
2019-01-26T05:55:09.243Z,45.10
2019-01-26T05:57:38.367Z,52.33
2019-01-26T06:00:10.232Z,54.03
2019-01-26T06:02:40.524Z,48.63
2019-01-26T06:05:09.675Z,48.37
2019-01-26T06:07:38.841Z,44.57
2019-01-26T06:10:08.017Z,42.30
2019-01-26T06:12:37.140Z,48.70
2019-01-26T06:15:07.873Z,44.10
2019-01-26T06:17:37.019Z,43.37
2019-01-26T06:20:06.621Z,45.20
2019-01-26T06:22:35.751Z,46.67
2019-01-26T06:25:05.132Z,43.90
2019-01-26T06:27:34.307Z,43.90
2019-01-26T06:30:03.684Z,42.17
2019-01-26T06:32:34.135Z,49.53
2019-01-26T06:35:03.340Z,43.27
2019-01-26T06:37:32.546Z,47.50
2019-01-26T06:40:01.782Z,43.80
2019-01-26T06:42:31.008Z,45.63
2019-01-26T06:45:01.552Z,48.77
2019-01-26T06:47:30.755Z,42.67
2019-01-26T06:49:59.962Z,43.13
2019-01-26T06:52:29.384Z,38.83
2019-01-26T06:54:58.558Z,39.83
2019-01-26T06:57:27.795Z,42.30
2019-01-26T06:59:57.022Z,38.20
2019-01-26T07:02:26.245Z,40.40
2019-01-26T07:05:01.132Z,44.27
2019-01-26T07:07:30.285Z,45.90
2019-01-26T07:09:59.569Z,38.57
2019-01-26T07:12:28.767Z,40.83
2019-01-26T07:14:58.107Z,40.87
2019-01-26T07:17:27.818Z,40.37
2019-01-26T07:19:57.023Z,41.17
2019-01-26T07:22:26.222Z,48.33
2019-01-26T07:24:55.617Z,40.83
2019-01-26T07:27:24.843Z,41.73
2019-01-26T07:29:54.070Z,41.23
2019-01-26T07:32:23.275Z,40.77
2019-01-26T07:34:52.436Z,42.20
2019-01-26T07:37:21.807Z,44.33
2019-01-26T07:39:50.964Z,47.07
2019-01-26T07:42:20.126Z,42.27
2019-01-26T07:44:50.724Z,44.27
2019-01-26T07:47:19.861Z,44.10
2019-01-26T07:49:49.073Z,39.03
2019-01-26T07:52:18.280Z,42.13
2019-01-26T07:54:47.448Z,42.87
2019-01-26T07:57:16.593Z,51.67
2019-01-26T07:59:46.984Z,44.90
2019-01-26T08:02:16.171Z,46.90
2019-01-26T08:04:45.372Z,43.93
2019-01-26T08:07:14.509Z,43.60
2019-01-26T08:09:43.724Z,44.53
2019-01-26T08:12:12.907Z,52.20
2019-01-26T08:14:42.096Z,46.60
2019-01-26T08:17:11.229Z,51.30
2019-01-26T08:19:40.418Z,45.50
2019-01-26T08:22:09.712Z,44.50
2019-01-26T08:24:38.848Z,45.27
2019-01-26T08:27:08.045Z,42.27
2019-01-26T08:29:37.190Z,45.90
2019-01-26T08:32:06.379Z,46.13
2019-01-26T08:34:35.563Z,50.80
2019-01-26T08:37:04.850Z,46.97
2019-01-26T08:39:34.063Z,51.07
2019-01-26T08:42:03.216Z,43.13
2019-01-26T08:44:32.528Z,45.33
2019-01-26T08:47:01.688Z,44.73
2019-01-26T08:49:30.832Z,42.67
2019-01-26T08:52:00.069Z,43.10
2019-01-26T08:54:29.201Z,50.87
2019-01-26T08:56:58.357Z,44.60
2019-01-26T08:59:27.552Z,50.50
2019-01-26T09:02:02.332Z,44.40
2019-01-26T09:04:33.143Z,44.57
2019-01-26T09:07:04.980Z,46.37
2019-01-26T09:09:35.556Z,47.83
2019-01-26T09:12:04.699Z,47.10
2019-01-26T09:14:33.918Z,48.33
2019-01-26T09:17:03.149Z,49.13
2019-01-26T09:19:32.311Z,48.17
2019-01-26T09:22:01.538Z,45.37
2019-01-26T09:24:30.740Z,44.63
2019-01-26T09:26:59.916Z,43.83
2019-01-26T09:29:29.133Z,40.07
2019-01-26T09:31:58.372Z,41.87
2019-01-26T09:34:27.518Z,38.73
2019-01-26T09:36:56.749Z,39.57
2019-01-26T09:39:27.970Z,36.43
2019-01-26T09:41:58.634Z,49.53
2019-01-26T09:44:30.261Z,43.53
2019-01-26T09:46:59.481Z,39.33
2019-01-26T09:49:28.612Z,40.87
2019-01-26T09:51:57.781Z,38.07
2019-01-26T09:54:27.123Z,39.63
2019-01-26T09:56:58.708Z,40.50
2019-01-26T09:59:27.853Z,40.07
2019-01-26T10:01:57.069Z,38.97
2019-01-26T10:04:26.209Z,42.67
2019-01-26T10:06:55.465Z,45.70
2019-01-26T10:09:26.036Z,40.97
2019-01-26T10:11:57.653Z,46.37
2019-01-26T10:14:27.301Z,47.77
2019-01-26T10:16:56.477Z,46.97
2019-01-26T10:19:25.697Z,47.47
2019-01-26T10:21:54.896Z,39.03
2019-01-26T10:24:24.020Z,44.40
2019-01-26T10:26:55.630Z,49.93
2019-01-26T10:29:24.832Z,54.33
2019-01-26T10:31:54.033Z,47.13
2019-01-26T10:34:23.248Z,44.13
2019-01-26T10:36:59.052Z,42.43
2019-01-26T10:39:28.177Z,42.47
2019-01-26T10:42:03.624Z,41.23
2019-01-26T10:44:33.659Z,37.33
2019-01-26T10:47:02.784Z,41.70
2019-01-26T10:49:33.230Z,39.57
2019-01-26T10:52:02.393Z,41.17
2019-01-26T10:54:31.526Z,40.47
2019-01-26T10:57:00.654Z,40.60
2019-01-26T10:59:31.172Z,36.17
2019-01-26T11:02:01.806Z,40.53
2019-01-26T11:04:31.004Z,39.33
2019-01-26T11:07:00.142Z,42.50
2019-01-26T11:09:29.327Z,39.10
2019-01-26T11:11:58.465Z,43.37
2019-01-26T11:14:27.680Z,49.37
2019-01-26T11:16:58.120Z,41.50
2019-01-26T11:19:27.296Z,47.47
2019-01-26T11:21:56.568Z,45.13
2019-01-26T11:24:25.734Z,38.67
2019-01-26T11:26:54.889Z,38.33
2019-01-26T11:29:25.282Z,40.90
2019-01-26T11:31:54.528Z,42.90
2019-01-26T11:34:23.682Z,42.13
2019-01-26T11:36:52.874Z,36.50
2019-01-26T11:39:22.530Z,38.43
2019-01-26T11:41:51.380Z,39.80
2019-01-26T11:44:20.548Z,37.20
2019-01-26T11:46:54.568Z,41.20
2019-01-26T11:49:23.700Z,34.63
2019-01-26T11:52:08.835Z,30.30
2019-01-26T11:54:44.880Z,31.03
2019-01-26T11:57:18.977Z,26.40
2019-01-26T11:59:52.494Z,24.73
2019-01-26T12:02:29.928Z,23.97
2019-01-26T12:05:01.310Z,20.97
2019-01-26T12:07:33.839Z,21.80
2019-01-26T12:10:02.994Z,23.10
2019-01-26T12:12:32.180Z,23.87
2019-01-26T12:15:01.363Z,26.97
2019-01-26T12:17:30.501Z,25.60
2019-01-26T12:20:02.122Z,30.20
2019-01-26T12:22:31.312Z,24.47
2019-01-26T12:25:00.556Z,31.60
2019-01-26T12:27:29.713Z,28.57
2019-01-26T12:29:58.878Z,32.80
2019-01-26T12:32:29.648Z,30.30
2019-01-26T12:34:58.797Z,35.83
2019-01-26T12:37:27.916Z,41.23
2019-01-26T12:39:57.104Z,39.77
2019-01-26T12:42:26.247Z,33.27
2019-01-26T12:44:55.380Z,31.13
2019-01-26T12:47:25.752Z,31.00
2019-01-26T12:49:54.936Z,32.93
2019-01-26T12:52:24.071Z,33.80
2019-01-26T12:54:53.315Z,28.90
2019-01-26T12:57:23.692Z,34.63
2019-01-26T12:59:52.880Z,49.60
2019-01-26T13:02:22.053Z,40.10
2019-01-26T13:04:53.724Z,41.80
2019-01-26T13:07:22.872Z,35.80
2019-01-26T13:09:52.002Z,35.77
2019-01-26T13:12:21.152Z,39.77
2019-01-26T13:14:50.335Z,36.03
2019-01-26T13:17:19.504Z,41.43
2019-01-26T13:19:48.700Z,28.93
2019-01-26T13:22:17.844Z,27.97
2019-01-26T13:24:48.332Z,26.67
2019-01-26T13:27:17.472Z,29.27
2019-01-26T13:29:46.595Z,28.67
2019-01-26T13:32:15.769Z,27.33
2019-01-26T13:34:45.625Z,29.23
2019-01-26T13:37:14.828Z,30.33
2019-01-26T13:39:45.255Z,27.27
2019-01-26T13:42:14.377Z,26.10
2019-01-26T13:44:43.552Z,25.23
2019-01-26T13:47:12.731Z,32.20
2019-01-26T13:49:44.079Z,35.03
2019-01-26T13:52:11.076Z,25.13
2019-01-26T13:54:40.235Z,35.80
2019-01-26T13:57:09.392Z,30.70
2019-01-26T13:59:38.663Z,27.47
2019-01-26T14:02:09.037Z,31.73
2019-01-26T14:04:38.817Z,31.73
2019-01-26T14:07:08.150Z,28.00
2019-01-26T14:09:38.576Z,27.93
2019-01-26T14:12:07.722Z,21.90
2019-01-26T14:14:36.872Z,23.27
2019-01-26T14:17:06.048Z,25.87
2019-01-26T14:19:35.295Z,26.27
2019-01-26T14:22:04.444Z,29.03
2019-01-26T14:24:33.591Z,21.63
2019-01-26T14:27:02.791Z,20.73
2019-01-26T14:29:31.932Z,28.13
2019-01-26T14:32:01.074Z,29.80
2019-01-26T14:34:31.504Z,29.00
2019-01-26T14:37:00.754Z,27.53
2019-01-26T14:39:29.884Z,34.43
2019-01-26T14:41:59.075Z,29.57
2019-01-26T14:44:28.221Z,24.30
2019-01-26T14:46:57.384Z,26.43
2019-01-26T14:49:27.892Z,23.20
2019-01-26T14:51:57.048Z,24.63
2019-01-26T14:54:27.423Z,31.57
2019-01-26T14:56:56.583Z,25.53
2019-01-26T14:59:28.199Z,25.47
2019-01-26T15:01:57.358Z,23.97
2019-01-26T15:04:27.799Z,27.77
2019-01-26T15:06:56.941Z,30.30
2019-01-26T15:09:27.319Z,33.33
2019-01-26T15:11:56.457Z,31.93
2019-01-26T15:14:31.744Z,35.00
2019-01-26T15:17:00.877Z,37.57
2019-01-26T15:19:30.038Z,36.00
2019-01-26T15:21:59.324Z,38.17
2019-01-26T15:24:28.473Z,37.87
2019-01-26T15:26:57.616Z,50.60
2019-01-26T15:29:28.093Z,57.40
2019-01-26T15:31:57.239Z,56.40
2019-01-26T15:34:26.416Z,46.37
2019-01-26T15:36:55.576Z,48.50
2019-01-26T15:39:27.493Z,48.00
2019-01-26T15:41:56.735Z,46.07
2019-01-26T15:44:25.872Z,43.43
2019-01-26T15:46:55.116Z,46.10
2019-01-26T15:49:24.276Z,50.43
2019-01-26T15:51:53.440Z,51.37
2019-01-26T15:54:22.661Z,50.77
2019-01-26T15:56:51.928Z,53.70
2019-01-26T15:59:21.172Z,53.53
2019-01-26T16:01:50.428Z,55.53
2019-01-26T16:04:19.650Z,57.70
2019-01-26T16:06:48.794Z,58.27
2019-01-26T16:09:17.925Z,52.60
2019-01-26T16:11:48.278Z,57.37
2019-01-26T16:14:17.415Z,56.63
2019-01-26T16:16:47.800Z,58.50
2019-01-26T16:19:17.777Z,67.63
2019-01-26T16:21:46.955Z,65.57
2019-01-26T16:24:16.122Z,61.80
2019-01-26T16:26:45.311Z,73.87
2019-01-26T16:29:14.479Z,66.27
2019-01-26T16:31:43.698Z,73.70
2019-01-26T16:34:14.932Z,82.70
2019-01-26T16:36:44.129Z,85.90
2019-01-26T16:39:13.283Z,80.40
2019-01-26T16:41:43.824Z,76.37
2019-01-26T16:44:13.001Z,83.93
2019-01-26T16:46:42.224Z,83.83
2019-01-26T16:49:11.381Z,86.60
2019-01-26T16:51:40.559Z,88.50
2019-01-26T16:54:09.760Z,76.57
2019-01-26T16:56:38.902Z,73.67
2019-01-26T16:59:08.779Z,77.87
2019-01-26T17:01:37.983Z,84.10
2019-01-26T17:04:09.690Z,79.67
2019-01-26T17:06:40.098Z,76.07
2019-01-26T17:09:10.714Z,65.10
2019-01-26T17:11:39.881Z,77.33
2019-01-26T17:14:09.111Z,61.83
2019-01-26T17:16:40.876Z,63.07
2019-01-26T17:19:10.070Z,69.13
2019-01-26T17:21:39.256Z,71.00
2019-01-26T17:24:08.504Z,75.00
2019-01-26T17:26:37.682Z,65.73
2019-01-26T17:29:06.852Z,64.20
2019-01-26T17:31:36.048Z,61.43
2019-01-26T17:34:05.291Z,78.67
2019-01-26T17:36:34.518Z,74.17
2019-01-26T17:39:07.740Z,67.87
2019-01-26T17:41:36.993Z,73.93
2019-01-26T17:44:06.187Z,79.73
2019-01-26T17:46:36.558Z,72.23
2019-01-26T17:49:05.730Z,87.03
2019-01-26T17:51:34.898Z,83.40
2019-01-26T17:54:04.065Z,92.53
2019-01-26T17:56:34.599Z,127.07
2019-01-26T17:59:03.893Z,80.57
2019-01-26T18:01:33.104Z,92.30
2019-01-26T18:04:02.279Z,89.13
2019-01-26T18:06:31.571Z,102.67
2019-01-26T18:09:00.821Z,103.67
2019-01-26T18:11:30.035Z,100.87
2019-01-26T18:14:00.538Z,94.30
2019-01-26T18:16:29.753Z,87.43
2019-01-26T18:18:59.014Z,84.50
2019-01-26T18:21:28.268Z,87.87
2019-01-26T18:23:57.917Z,82.20
2019-01-26T18:26:27.052Z,83.17
2019-01-26T18:28:56.258Z,99.17
2019-01-26T18:31:26.690Z,117.00
2019-01-26T18:33:56.008Z,119.90
2019-01-26T18:36:25.247Z,123.47
2019-01-26T18:38:54.425Z,114.57
2019-01-26T18:41:23.753Z,126.60
2019-01-26T18:43:52.956Z,124.27
2019-01-26T18:46:22.222Z,127.13
2019-01-26T18:48:51.437Z,152.13
2019-01-26T18:51:20.710Z,140.20
2019-01-26T18:53:49.932Z,128.03
2019-01-26T18:56:19.223Z,89.13
2019-01-26T18:58:48.498Z,120.73
2019-01-26T19:01:17.639Z,133.97
2019-01-26T19:03:53.854Z,125.90
2019-01-26T19:06:23.131Z,113.80
2019-01-26T19:08:52.413Z,107.73
2019-01-26T19:11:21.577Z,106.43
2019-01-26T19:13:50.749Z,109.80
2019-01-26T19:16:22.437Z,105.80
2019-01-26T19:18:51.630Z,99.90
2019-01-26T19:21:24.193Z,112.00
2019-01-26T19:23:53.931Z,108.73
2019-01-26T19:26:23.146Z,105.27
2019-01-26T19:28:53.638Z,88.47
2019-01-26T19:31:22.801Z,103.13
2019-01-26T19:33:53.180Z,107.67
2019-01-26T19:36:22.471Z,107.90
2019-01-26T19:38:51.926Z,97.53
2019-01-26T19:41:24.450Z,101.17
2019-01-26T19:43:53.773Z,102.77
2019-01-26T19:46:25.519Z,106.40
2019-01-26T19:48:54.708Z,106.40
2019-01-26T19:51:23.983Z,100.00
2019-01-26T19:53:53.216Z,101.07
2019-01-26T19:56:22.555Z,100.73
2019-01-26T19:58:52.608Z,93.90
2019-01-26T20:01:21.853Z,98.37
2019-01-26T20:03:51.053Z,114.03
2019-01-26T20:06:21.161Z,121.30
2019-01-26T20:08:50.467Z,109.43
2019-01-26T20:11:22.197Z,101.63
2019-01-26T20:13:51.391Z,100.80
2019-01-26T20:16:20.622Z,108.23
2019-01-26T20:18:54.699Z,99.40
2019-01-26T20:21:24.070Z,96.03
2019-01-26T20:23:53.293Z,108.80
2019-01-26T20:26:22.513Z,126.00
2019-01-26T20:28:51.732Z,115.47
2019-01-26T20:31:20.886Z,132.30
2019-01-26T20:33:50.025Z,131.47
2019-01-26T20:36:19.190Z,118.70
2019-01-26T20:38:48.334Z,131.53
2019-01-26T20:41:17.533Z,135.73
2019-01-26T20:43:46.657Z,129.40
2019-01-26T20:46:15.872Z,117.27
2019-01-26T20:48:46.528Z,113.70
2019-01-26T20:51:16.515Z,113.03
2019-01-26T20:53:45.709Z,104.70
2019-01-26T20:56:16.134Z,104.97
2019-01-26T20:58:45.356Z,83.70
2019-01-26T21:01:15.712Z,102.17
2019-01-26T21:03:44.860Z,88.40
2019-01-26T21:06:14.048Z,90.53
2019-01-26T21:08:43.231Z,88.77
2019-01-26T21:11:12.496Z,93.13
2019-01-26T21:13:41.643Z,82.43
2019-01-26T21:16:10.814Z,91.63
2019-01-26T21:18:42.517Z,82.13
2019-01-26T21:21:12.444Z,87.93
2019-01-26T21:23:41.585Z,82.10
2019-01-26T21:26:10.716Z,79.53
2019-01-26T21:28:41.127Z,80.10
2019-01-26T21:31:10.278Z,88.27
2019-01-26T21:33:39.652Z,94.67
2019-01-26T21:36:08.812Z,83.57
2019-01-26T21:38:37.992Z,88.43
2019-01-26T21:41:09.891Z,97.53
2019-01-26T21:43:39.053Z,95.87
2019-01-26T21:46:08.237Z,87.30
2019-01-26T21:48:39.935Z,79.97
2019-01-26T21:51:09.124Z,89.57
2019-01-26T21:53:38.270Z,95.23
2019-01-26T21:56:07.436Z,85.27
2019-01-26T21:58:37.848Z,93.37
2019-01-26T22:01:06.986Z,83.90
2019-01-26T22:03:37.310Z,90.43
2019-01-26T22:06:06.766Z,90.17
2019-01-26T22:08:35.935Z,83.10
2019-01-26T22:11:05.185Z,82.13
2019-01-26T22:13:35.635Z,84.67
2019-01-26T22:16:04.913Z,93.10
2019-01-26T22:18:34.130Z,89.60
2019-01-26T22:21:03.351Z,98.20
2019-01-26T22:23:32.487Z,96.70
2019-01-26T22:26:01.645Z,92.23
2019-01-26T22:28:31.088Z,91.33
2019-01-26T22:31:00.275Z,90.20
2019-01-26T22:33:29.501Z,99.93
2019-01-26T22:35:58.718Z,89.73
2019-01-26T22:38:27.895Z,91.77
2019-01-26T22:40:57.062Z,106.43
2019-01-26T22:43:26.264Z,123.80
2019-01-26T22:45:55.416Z,108.13
2019-01-26T22:48:24.609Z,110.73
2019-01-26T22:50:53.860Z,115.97
2019-01-26T22:53:23.018Z,105.73
2019-01-26T22:55:52.307Z,109.73
2019-01-26T22:58:23.927Z,116.67
2019-01-26T23:00:56.530Z,116.13
2019-01-26T23:03:30.321Z,117.83
2019-01-26T23:06:06.113Z,116.97
2019-01-26T23:08:36.576Z,108.30
2019-01-26T23:11:09.486Z,109.83
2019-01-26T23:13:44.956Z,110.40
2019-01-26T23:16:19.525Z,114.13
2019-01-26T23:18:56.312Z,105.57
2019-01-26T23:21:37.556Z,110.40
2019-01-26T23:24:11.666Z,107.50
2019-01-26T23:27:01.605Z,105.10
2019-01-26T23:29:38.330Z,113.97
2019-01-26T23:32:07.497Z,113.77
2019-01-26T23:34:36.657Z,120.93
2019-01-26T23:37:05.865Z,113.47
2019-01-26T23:39:35.035Z,114.07
2019-01-26T23:42:05.472Z,114.17
2019-01-26T23:44:36.005Z,110.23
2019-01-26T23:47:05.160Z,123.90
2019-01-26T23:49:34.353Z,124.10
2019-01-26T23:52:03.524Z,117.33
2019-01-26T23:54:32.681Z,125.67
2019-01-26T23:57:03.209Z,117.10
2019-01-26T23:59:32.376Z,114.43
